sensor_id;sensor_type;location;lat;lon;timestamp;P1;durP1;ratioP1;P2;durP2;ratioP2
9094;SDS011;4583;49.796;9.902;2022-11-20T00:05:07;28.03;;;16.87;;
9094;SDS011;4583;49.796;9.902;2022-11-20T00:15:09;30.43;;;17.53;;
9094;SDS011;4583;49.796;9.902;2022-11-20T00:25:11;30.93;;;17.23;;
9094;SDS011;4583;49.796;9.902;2022-11-20T00:35:13;29.47;;;16.70;;
9094;SDS011;4583;49.796;9.902;2022-11-20T00:45:14;30.03;;;17.20;;
9094;SDS011;4583;49.796;9.902;2022-11-20T00:55:16;32.73;;;18.33;;
9094;SDS011;4583;49.796;9.902;2022-11-20T01:05:18;32.20;;;18.50;;
9094;SDS011;4583;49.796;9.902;2022-11-20T01:15:19;30.20;;;17.40;;
9094;SDS011;4583;49.796;9.902;2022-11-20T01:25:21;31.67;;;18.67;;
9094;SDS011;4583;49.796;9.902;2022-11-20T01:35:23;28.60;;;17.30;;
9094;SDS011;4583;49.796;9.902;2022-11-20T01:55:49;30.33;;;18.10;;
9094;SDS011;4583;49.796;9.902;2022-11-20T02:16:26;31.13;;;18.13;;
9094;SDS011;4583;49.796;9.902;2022-11-20T02:26:32;29.33;;;17.83;;
9094;SDS011;4583;49.796;9.902;2022-11-20T02:36:38;35.03;;;19.27;;
9094;SDS011;4583;49.796;9.902;2022-11-20T02:46:42;32.07;;;18.27;;
9094;SDS011;4583;49.796;9.902;2022-11-20T02:56:44;34.40;;;18.93;;
9094;SDS011;4583;49.796;9.902;2022-11-20T03:06:46;29.33;;;17.33;;
9094;SDS011;4583;49.796;9.902;2022-11-20T03:16:47;32.20;;;18.40;;
9094;SDS011;4583;49.796;9.902;2022-11-20T03:26:49;32.03;;;18.43;;
9094;SDS011;4583;49.796;9.902;2022-11-20T03:36:51;35.10;;;18.17;;
9094;SDS011;4583;49.796;9.902;2022-11-20T03:46:52;33.97;;;19.03;;
9094;SDS011;4583;49.796;9.902;2022-11-20T03:56:54;31.60;;;18.03;;
9094;SDS011;4583;49.796;9.902;2022-11-20T04:06:55;33.43;;;19.10;;
9094;SDS011;4583;49.796;9.902;2022-11-20T04:16:57;32.83;;;17.37;;
9094;SDS011;4583;49.796;9.902;2022-11-20T04:26:59;32.17;;;18.03;;
9094;SDS011;4583;49.796;9.902;2022-11-20T04:37:01;32.93;;;18.93;;
9094;SDS011;4583;49.796;9.902;2022-11-20T04:47:03;31.23;;;18.40;;
9094;SDS011;4583;49.796;9.902;2022-11-20T04:57:05;31.97;;;18.23;;
9094;SDS011;4583;49.796;9.902;2022-11-20T05:07:14;31.97;;;17.47;;
9094;SDS011;4583;49.796;9.902;2022-11-20T05:17:16;32.07;;;17.40;;
9094;SDS011;4583;49.796;9.902;2022-11-20T05:27:18;33.63;;;18.27;;
9094;SDS011;4583;49.796;9.902;2022-11-20T05:37:19;32.83;;;18.37;;
9094;SDS011;4583;49.796;9.902;2022-11-20T05:47:21;29.40;;;17.53;;
9094;SDS011;4583;49.796;9.902;2022-11-20T05:57:22;33.83;;;18.17;;
9094;SDS011;4583;49.796;9.902;2022-11-20T06:07:24;32.73;;;17.73;;
9094;SDS011;4583;49.796;9.902;2022-11-20T06:17:26;32.83;;;18.73;;
9094;SDS011;4583;49.796;9.902;2022-11-20T06:27:28;31.50;;;18.07;;
9094;SDS011;4583;49.796;9.902;2022-11-20T06:37:30;38.87;;;19.87;;
9094;SDS011;4583;49.796;9.902;2022-11-20T06:47:32;39.27;;;19.57;;
9094;SDS011;4583;49.796;9.902;2022-11-20T06:57:34;34.83;;;18.50;;
9094;SDS011;4583;49.796;9.902;2022-11-20T07:11:55;33.93;;;18.97;;
9094;SDS011;4583;49.796;9.902;2022-11-20T07:21:57;35.27;;;18.57;;
9094;SDS011;4583;49.796;9.902;2022-11-20T07:31:58;36.23;;;19.17;;
9094;SDS011;4583;49.796;9.902;2022-11-20T07:42:00;40.47;;;20.17;;
9094;SDS011;4583;49.796;9.902;2022-11-20T07:52:02;39.03;;;20.27;;
9094;SDS011;4583;49.796;9.902;2022-11-20T08:02:05;38.30;;;20.10;;
9094;SDS011;4583;49.796;9.902;2022-11-20T08:12:20;35.03;;;19.73;;
9094;SDS011;4583;49.796;9.902;2022-11-20T08:22:40;36.77;;;19.73;;
9094;SDS011;4583;49.796;9.902;2022-11-20T08:32:42;40.80;;;19.00;;
9094;SDS011;4583;49.796;9.902;2022-11-20T08:42:50;33.93;;;19.37;;
9094;SDS011;4583;49.796;9.902;2022-11-20T08:52:51;34.80;;;18.27;;
9094;SDS011;4583;49.796;9.902;2022-11-20T09:02:53;32.03;;;18.17;;
9094;SDS011;4583;49.796;9.902;2022-11-20T09:12:55;38.07;;;18.47;;
9094;SDS011;4583;49.796;9.902;2022-11-20T09:22:57;38.03;;;18.80;;
9094;SDS011;4583;49.796;9.902;2022-11-20T09:32:59;33.50;;;18.33;;
9094;SDS011;4583;49.796;9.902;2022-11-20T09:53:30;32.97;;;18.37;;
9094;SDS011;4583;49.796;9.902;2022-11-20T10:03:56;30.37;;;17.03;;
9094;SDS011;4583;49.796;9.902;2022-11-20T10:14:04;31.30;;;17.40;;
9094;SDS011;4583;49.796;9.902;2022-11-20T10:24:21;25.20;;;15.03;;
9094;SDS011;4583;49.796;9.902;2022-11-20T10:34:44;26.53;;;15.03;;
9094;SDS011;4583;49.796;9.902;2022-11-20T10:44:52;25.90;;;14.83;;
9094;SDS011;4583;49.796;9.902;2022-11-20T11:05:10;20.53;;;12.93;;
9094;SDS011;4583;49.796;9.902;2022-11-20T11:15:39;21.50;;;12.00;;
9094;SDS011;4583;49.796;9.902;2022-11-20T11:25:42;20.53;;;11.67;;
9094;SDS011;4583;49.796;9.902;2022-11-20T11:35:58;19.13;;;12.00;;
9094;SDS011;4583;49.796;9.902;2022-11-20T11:46:02;19.27;;;11.47;;
9094;SDS011;4583;49.796;9.902;2022-11-20T11:56:24;14.93;;;9.20;;
9094;SDS011;4583;49.796;9.902;2022-11-20T12:06:27;12.67;;;8.03;;
9094;SDS011;4583;49.796;9.902;2022-11-20T12:16:35;11.37;;;6.97;;
9094;SDS011;4583;49.796;9.902;2022-11-20T12:37:07;10.37;;;7.37;;
9094;SDS011;4583;49.796;9.902;2022-11-20T12:47:33;9.50;;;6.67;;
9094;SDS011;4583;49.796;9.902;2022-11-20T13:08:00;11.33;;;7.70;;
9094;SDS011;4583;49.796;9.902;2022-11-20T13:18:06;10.67;;;7.20;;
9094;SDS011;4583;49.796;9.902;2022-11-20T13:38:13;9.83;;;6.73;;
9094;SDS011;4583;49.796;9.902;2022-11-20T13:48:22;12.27;;;7.13;;
9094;SDS011;4583;49.796;9.902;2022-11-20T14:08:36;7.43;;;5.60;;
9094;SDS011;4583;49.796;9.902;2022-11-20T14:18:41;8.67;;;5.90;;
9094;SDS011;4583;49.796;9.902;2022-11-20T14:28:43;9.27;;;5.77;;
9094;SDS011;4583;49.796;9.902;2022-11-20T14:38:50;12.00;;;7.53;;
9094;SDS011;4583;49.796;9.902;2022-11-20T14:48:54;8.83;;;6.03;;
9094;SDS011;4583;49.796;9.902;2022-11-20T14:58:57;8.37;;;5.90;;
9094;SDS011;4583;49.796;9.902;2022-11-20T15:08:59;9.00;;;6.30;;
9094;SDS011;4583;49.796;9.902;2022-11-20T15:19:02;10.70;;;6.57;;
9094;SDS011;4583;49.796;9.902;2022-11-20T15:29:19;15.57;;;9.40;;
9094;SDS011;4583;49.796;9.902;2022-11-20T15:39:22;12.47;;;7.33;;
9094;SDS011;4583;49.796;9.902;2022-11-20T15:49:23;16.70;;;11.33;;
9094;SDS011;4583;49.796;9.902;2022-11-20T15:59:26;15.83;;;10.27;;
9094;SDS011;4583;49.796;9.902;2022-11-20T16:09:28;17.33;;;11.57;;
9094;SDS011;4583;49.796;9.902;2022-11-20T16:19:30;17.37;;;11.73;;
9094;SDS011;4583;49.796;9.902;2022-11-20T16:29:31;19.80;;;12.40;;
9094;SDS011;4583;49.796;9.902;2022-11-20T16:39:33;17.20;;;10.67;;
9094;SDS011;4583;49.796;9.902;2022-11-20T16:49:34;20.83;;;12.53;;
9094;SDS011;4583;49.796;9.902;2022-11-20T16:59:36;21.77;;;13.43;;
9094;SDS011;4583;49.796;9.902;2022-11-20T17:09:38;18.80;;;12.67;;
9094;SDS011;4583;49.796;9.902;2022-11-20T17:19:40;21.47;;;13.23;;
9094;SDS011;4583;49.796;9.902;2022-11-20T17:29:41;23.50;;;14.73;;
9094;SDS011;4583;49.796;9.902;2022-11-20T17:39:43;26.17;;;15.30;;
9094;SDS011;4583;49.796;9.902;2022-11-20T17:49:45;19.97;;;13.03;;
9094;SDS011;4583;49.796;9.902;2022-11-20T17:59:46;25.47;;;15.57;;
9094;SDS011;4583;49.796;9.902;2022-11-20T18:09:48;25.03;;;16.07;;
9094;SDS011;4583;49.796;9.902;2022-11-20T18:19:50;22.93;;;15.10;;
9094;SDS011;4583;49.796;9.902;2022-11-20T18:30:12;29.60;;;19.03;;
9094;SDS011;4583;49.796;9.902;2022-11-20T18:40:14;33.87;;;21.90;;
9094;SDS011;4583;49.796;9.902;2022-11-20T18:50:16;25.57;;;14.77;;
9094;SDS011;4583;49.796;9.902;2022-11-20T19:00:19;11.33;;;7.47;;
9094;SDS011;4583;49.796;9.902;2022-11-20T19:10:21;7.00;;;4.50;;
9094;SDS011;4583;49.796;9.902;2022-11-20T19:20:24;8.63;;;3.40;;
9094;SDS011;4583;49.796;9.902;2022-11-20T19:30:27;6.60;;;3.30;;
9094;SDS011;4583;49.796;9.902;2022-11-20T19:40:29;6.67;;;3.50;;
9094;SDS011;4583;49.796;9.902;2022-11-20T19:50:31;6.73;;;2.43;;
9094;SDS011;4583;49.796;9.902;2022-11-20T20:00:32;3.73;;;2.40;;
9094;SDS011;4583;49.796;9.902;2022-11-20T20:10:34;6.13;;;2.60;;
9094;SDS011;4583;49.796;9.902;2022-11-20T20:20:36;5.83;;;3.70;;
9094;SDS011;4583;49.796;9.902;2022-11-20T20:40:08;3.47;;;2.30;;
9094;SDS011;4583;49.796;9.902;2022-11-20T20:50:15;3.10;;;2.27;;
9094;SDS011;4583;49.796;9.902;2022-11-20T21:00:17;4.27;;;2.27;;
9094;SDS011;4583;49.796;9.902;2022-11-20T21:10:19;4.60;;;2.33;;
9094;SDS011;4583;49.796;9.902;2022-11-20T21:20:24;3.17;;;2.00;;
9094;SDS011;4583;49.796;9.902;2022-11-20T21:30:45;2.83;;;1.87;;
9094;SDS011;4583;49.796;9.902;2022-11-20T21:40:47;1.90;;;1.63;;
9094;SDS011;4583;49.796;9.902;2022-11-20T21:50:48;2.40;;;1.90;;
9094;SDS011;4583;49.796;9.902;2022-11-20T22:00:50;2.00;;;1.80;;
9094;SDS011;4583;49.796;9.902;2022-11-20T22:10:52;2.53;;;1.80;;
9094;SDS011;4583;49.796;9.902;2022-11-20T22:21:02;3.13;;;1.70;;
9094;SDS011;4583;49.796;9.902;2022-11-20T22:31:09;3.53;;;2.00;;
9094;SDS011;4583;49.796;9.902;2022-11-20T22:42:31;2.63;;;1.90;;
9094;SDS011;4583;49.796;9.902;2022-11-20T22:52:33;5.27;;;1.80;;
9094;SDS011;4583;49.796;9.902;2022-11-20T23:02:34;3.17;;;1.50;;
9094;SDS011;4583;49.796;9.902;2022-11-20T23:12:36;2.40;;;1.70;;
9094;SDS011;4583;49.796;9.902;2022-11-20T23:22:38;3.33;;;1.60;;
9094;SDS011;4583;49.796;9.902;2022-11-20T23:32:39;5.87;;;1.70;;
9094;SDS011;4583;49.796;9.902;2022-11-20T23:42:41;4.37;;;1.70;;
9094;SDS011;4583;49.796;9.902;2022-11-20T23:53:03;4.23;;;1.73;;
